Flight Track Log - Related Links

Times and Time Zones

All times are in EDT time to prevent confusion due to time zone crossing. See the UAL1122 flight status page for this flight to view local times or setup timezone preferences in your user account.

Time Position Orientation Groundspeed Altitude Reporting Facility
EDT Latitude Longitude Course Direction KTS MPH feet Rate Location/Type
Thu 05:26:15 PM 26.0855 -80.1788 90° East  Level FlightAware Approximate
Thu 05:27:49 PM 26.0853 -80.0467 11° North 223 257 4,100  Level Miami Center
Thu 05:28:50 PM 26.1586 -80.0303 313° West 282 325 5,000 414 Climbing Miami Center
Thu 05:29:45 PM 26.2014 -80.0822 293° West 290 334 4,900 98 Descending Miami Center
Thu 05:30:52 PM 26.2331 -80.1642 279° West 290 334 5,200 1,328 Climbing Miami Center
Thu 05:31:47 PM 26.2456 -80.2547 282° West 284 327 7,600 2,521 Climbing Miami Center
Thu 05:32:51 PM 26.2625 -80.3411 279° West 298 343 10,200 1,728 Climbing Miami Center
Thu 05:33:52 PM 26.2783 -80.4528 281° West 324 373 11,200 1,587 Climbing Miami Center
Thu 05:34:52 PM 26.2967 -80.5575 304° West 368 423 13,400 2,250 Climbing Miami Center
Thu 05:35:52 PM 26.3628 -80.6661 315° West 389 448 15,700 2,200 Climbing Miami Center
Thu 05:36:52 PM 26.4339 -80.7450 314° West 396 456 17,800 1,916 Climbing Miami Center
Thu 05:37:51 PM 26.5189 -80.8431 303° West 395 455 19,500 1,650 Climbing Miami Center
Thu 05:38:52 PM 26.5767 -80.9425 302° West 414 476 21,100 1,686 Climbing Miami Center
Thu 05:39:52 PM 26.6464 -81.0658 302° West 430 495 22,900 1,650 Climbing Miami Center
Thu 05:40:52 PM 26.7039 -81.1700 301° West 436 502 24,400 1,462 Climbing Miami Center
Thu 05:41:51 PM 26.7750 -81.3031 302° West 441 507 25,800 1,450 Climbing Miami Center
Thu 05:42:52 PM 26.8403 -81.4194 290° West 447 514 27,300 1,550 Climbing Miami Center
Thu 05:43:51 PM 26.8839 -81.5539 290° West 447 514 28,900 1,500 Climbing Miami Center
Thu 05:44:52 PM 26.9275 -81.6883 292° West 452 520 30,300 1,438 Climbing Miami Center
Thu 05:45:52 PM 26.9736 -81.8136 293° West 452 520 31,800 1,450 Climbing Miami Center
Thu 05:46:52 PM 27.0156 -81.9228 289° West 447 514 33,200 1,300 Climbing Miami Center
Thu 05:47:52 PM 27.0586 -82.0622 288° West 429 494 34,400 1,100 Climbing Miami Center
Thu 05:48:52 PM 27.0958 -82.1875 288° West 429 494 35,400 800 Climbing Miami Center
Thu 05:49:52 PM 27.1331 -82.3128 289° West 429 494 36,000 300 Climbing Miami Center
Thu 05:50:52 PM 27.1719 -82.4406 287° West 424 488 36,000 -50 Level Miami Center
Thu 05:51:52 PM 27.2064 -82.5706 289° West 429 494 35,900 -50 Descending Miami Center
Thu 05:52:52 PM 27.2453 -82.6986 288° West 429 494 35,900 50 Level Miami Center
Thu 05:53:52 PM 27.2817 -82.8242 288° West 424 488 36,000 50 Climbing Miami Center
Thu 05:54:52 PM 27.3203 -82.9544 289° West 439 505 36,000 -50 Level Miami Center
Thu 05:55:52 PM 27.3586 -83.0828 287° West 439 505 35,900 -50 Descending Miami Center
Thu 05:56:52 PM 27.3892 -83.1942 289° West 439 505 35,900  Level Miami Center
Thu 05:57:52 PM 27.4272 -83.3225 288° West 434 499 35,900 50 Level Miami Center
Thu 05:58:52 PM 27.4650 -83.4533 288° West 429 494 36,000 50 Climbing Miami Center
Thu 05:59:52 PM 27.5008 -83.5817 288° West 429 494 36,000  Level Miami Center
Thu 06:00:52 PM 27.5367 -83.7078 288° West 429 494 36,000  Level Miami Center
Thu 06:01:52 PM 27.5742 -83.8364 285° West 429 494 36,000  Level Miami Center
Thu 06:02:52 PM 27.6036 -83.9622 289° West 429 494 36,000 -50 Level Miami Center
Thu 06:03:52 PM 27.6431 -84.0889 287° West 429 494 35,900  Descending Miami Center
Thu 06:04:52 PM 27.6783 -84.2175 291° West 429 494 36,000  Climbing Miami Center
Thu 06:05:52 PM 27.7219 -84.3444 283° West 429 494 35,900  Descending Miami Center
Thu 06:06:34 PM 27.7442 -84.4494 288° West 429 494 36,000 59 Climbing Jacksonville Center
Thu 06:07:34 PM 27.7822 -84.5789 288° West 424 488 36,000  Level Jacksonville Center
Thu 06:08:34 PM 27.8181 -84.7061 288° West 424 488 36,000  Level Jacksonville Center
Thu 06:09:34 PM 27.8497 -84.8147 285° West 423 487 36,000  Level Jacksonville Center
Thu 06:10:34 PM 27.8811 -84.9492 287° West 423 487 36,000  Level Jacksonville Center
Thu 06:11:34 PM 27.9164 -85.0767 287° West 423 487 36,000  Level Jacksonville Center
Thu 06:12:34 PM 27.9497 -85.2042 287° West 423 487 36,000  Level Jacksonville Center
Thu 06:13:34 PM 27.9869 -85.3392 288° West 431 496 36,000 -50 Level Jacksonville Center
Thu 06:14:34 PM 28.0219 -85.4644 287° West 431 496 35,900  Descending Jacksonville Center
Thu 06:15:34 PM 28.0550 -85.5875 287° West 424 488 36,000  Climbing Jacksonville Center
Thu 06:16:34 PM 28.0897 -85.7178 288° West 424 488 35,900 -50 Descending Jacksonville Center
Thu 06:17:34 PM 28.1244 -85.8389 285° West 419 482 35,900 50 Level Jacksonville Center
Thu 06:18:34 PM 28.1550 -85.9669 288° West 419 482 36,000  Climbing Jacksonville Center
Thu 06:19:34 PM 28.1914 -86.0975 287° West 419 482 35,900  Descending Jacksonville Center
Thu 06:20:34 PM 28.2236 -86.2211 287° West 419 482 36,000 50 Climbing Jacksonville Center
Thu 06:21:34 PM 28.2558 -86.3444 287° West 414 476 36,000  Level Jacksonville Center
Thu 06:22:34 PM 28.2900 -86.4683 286° West 421 484 36,000  Level Jacksonville Center
Thu 06:23:34 PM 28.3239 -86.5992 286° West 415 478 36,000  Level Jacksonville Center
Thu 06:24:34 PM 28.3556 -86.7275 286° West 415 478 36,000  Level Jacksonville Center
Thu 06:25:34 PM 28.3872 -86.8539 288° West 415 478 36,000  Level Jacksonville Center
Thu 06:26:34 PM 28.4247 -86.9875 285° West 421 484 36,000  Level Jacksonville Center
Thu 06:27:34 PM 28.4542 -87.1114 286° West 421 484 36,000  Level Jacksonville Center
Thu 06:28:34 PM 28.4856 -87.2378 285° West 421 484 36,000  Level Jacksonville Center
Thu 06:29:33 PM 28.5147 -87.3597 287° West 427 491 36,000  Level Jacksonville Center
Thu 06:31:24 PM 28.5733 -87.5825 286° West 394 453 36,000 -35 Level Houston Center
Thu 06:32:24 PM 28.6061 -87.7114 287° West 406 467 35,900  Descending Houston Center
Thu 06:33:24 PM 28.6392 -87.8381 285° West 414 476 36,000 50 Climbing Houston Center
Thu 06:34:23 PM 28.6697 -87.9647 284° West 414 476 36,000 -50 Level Houston Center
Thu 06:35:24 PM 28.7006 -88.1058 285° West 422 486 35,900 -50 Descending Houston Center
Thu 06:36:24 PM 28.7311 -88.2350 286° West 416 479 35,900 50 Level Houston Center
Thu 06:37:24 PM 28.7633 -88.3642 286° West 416 479 36,000  Climbing Houston Center
Thu 06:38:24 PM 28.7956 -88.4914 284° West 416 479 35,900 -50 Descending Houston Center
Thu 06:39:24 PM 28.8236 -88.6233 287° West 421 484 35,900 50 Level Houston Center
Thu 06:40:24 PM 28.8578 -88.7503 285° West 421 484 36,000 50 Climbing Houston Center
Thu 06:41:23 PM 28.8878 -88.8800 285° West 421 484 36,000  Level Houston Center
Thu 06:42:24 PM 28.9172 -89.0075 285° West 421 484 36,000 -50 Level Houston Center
Thu 06:43:24 PM 28.9469 -89.1347 282° West 421 484 35,900  Descending Houston Center
Thu 06:44:24 PM 28.9722 -89.2672 279° West 416 479 36,000 50 Climbing Houston Center
Thu 06:45:24 PM 28.9914 -89.4022 282° West 421 484 36,000  Level Houston Center
Thu 06:46:24 PM 29.0142 -89.5300 280° West 426 490 36,000 -50 Level Houston Center
Thu 06:47:24 PM 29.0350 -89.6650 280° West 432 497 35,900  Descending Houston Center
Thu 06:48:23 PM 29.0558 -89.7978 280° West 432 497 36,000 50 Climbing Houston Center
Thu 06:49:24 PM 29.0761 -89.9281 281° West 427 491 36,000  Level Houston Center
Thu 06:50:24 PM 29.0986 -90.0608 279° West 427 491 36,000  Level Houston Center
Thu 06:51:24 PM 29.1169 -90.1914 281° West 427 491 36,000  Level Houston Center
Thu 06:52:26 PM 29.1392 -90.3289 280° West 427 491 36,000  Level Houston Center
Thu 06:53:24 PM 29.1592 -90.4619 280° West 427 491 36,000 -51 Level Houston Center
Thu 06:54:24 PM 29.1792 -90.5925 281° West 427 491 35,900  Descending Houston Center
Thu 06:55:24 PM 29.2008 -90.7256 281° West 427 491 36,000 37 Climbing Houston Center
Thu 06:57:07 PM 29.2397 -90.9603 280° West 424 488 36,000  Level FlightAware ADS-B
Thu 06:57:54 PM 29.2556 -91.0652 280° West 424 488 36,000  Level FlightAware ADS-B
Thu 06:58:28 PM 29.2665 -91.1386 278° West 425 489 36,000 -67 Level FlightAware ADS-B
Thu 06:59:24 PM 29.2808 -91.2561 278° West 427 491 35,900  Descending Houston Center
Thu 07:00:24 PM 29.2978 -91.3872 282° West 427 491 36,000 50 Climbing Houston Center
Thu 07:01:24 PM 29.3231 -91.5228 278° West 427 491 36,000  Level Houston Center
Thu 07:02:24 PM 29.3400 -91.6539 280° West 427 491 36,000  Level Houston Center
Thu 07:04:08 PM 29.3767 -91.8924 279° West 424 488 36,000  Level FlightAware ADS-B
Thu 07:04:39 PM 29.3864 -91.9601 279° West 424 488 36,000  Level FlightAware ADS-B
Thu 07:05:39 PM 29.4054 -92.0932 279° West 425 489 36,000  Level FlightAware ADS-B
Thu 07:06:11 PM 29.4155 -92.1651 279° West 423 487 36,000  Level FlightAware ADS-B
Thu 07:07:02 PM 29.4313 -92.2764 279° West 421 484 36,000  Level FlightAware ADS-B
Thu 07:07:33 PM 29.4410 -92.3455 279° West 420 483 36,000  Level FlightAware ADS-B
Thu 07:08:07 PM 29.4513 -92.4198 278° West 420 483 36,000  Level FlightAware ADS-B
Thu 07:08:29 PM 29.4570 -92.4692 273° West 421 484 36,000  Level FlightAware ADS-B
Thu 07:09:04 PM 29.4608 -92.5471 273° West 422 486 36,000  Level FlightAware ADS-B
Thu 07:09:36 PM 29.4641 -92.6174 273° West 422 486 36,000  Level FlightAware ADS-B
Thu 07:10:10 PM 29.4676 -92.6926 273° West 421 484 36,000  Level FlightAware ADS-B
Thu 07:10:41 PM 29.4707 -92.7610 273° West 420 483 36,000 -273 Level FlightAware ADS-B
Thu 07:11:16 PM 29.4743 -92.8408 273° West 419 482 35,700 -818 Descending FlightAware ADS-B
Thu 07:11:47 PM 29.4774 -92.9083 273° West 422 486 35,100 -984 Descending FlightAware ADS-B
Thu 07:12:17 PM 29.4804 -92.9756 273° West 422 486 34,700 -984 Descending FlightAware ADS-B
Thu 07:12:48 PM 29.4836 -93.0443 273° West 423 487 34,100 -1,355 Descending FlightAware ADS-B
Thu 07:13:19 PM 29.4867 -93.1155 273° West 428 493 33,300 -1,619 Descending FlightAware ADS-B
Thu 07:13:51 PM 29.4895 -93.1844 273° West 441 507 32,400 -1,875 Descending FlightAware ADS-B
Thu 07:14:23 PM 29.4926 -93.2599 273° West 450 518 31,300 -2,286 Descending FlightAware ADS-B
Thu 07:14:54 PM 29.4958 -93.3373 273° West 457 526 30,000 -2,656 Descending FlightAware ADS-B
Thu 07:15:24 PM 29.4989 -93.4119 273° West 456 525 28,600 -2,557 Descending FlightAware ADS-B
Thu 07:15:55 PM 29.5017 -93.4845 273° West 454 522 27,400 -2,361 Descending FlightAware ADS-B
Thu 07:16:25 PM 29.5047 -93.5569 273° West 449 517 26,200 -2,400 Descending FlightAware ADS-B
Thu 07:16:55 PM 29.5074 -93.6278 272° West 443 510 25,000 -2,361 Descending FlightAware ADS-B
Thu 07:17:26 PM 29.5101 -93.6998 272° West 438 504 23,800 -2,262 Descending FlightAware ADS-B
Thu 07:17:56 PM 29.5127 -93.7699 273° West 432 497 22,700 -2,262 Descending FlightAware ADS-B
Thu 07:18:27 PM 29.5153 -93.8388 272° West 428 493 21,500 -2,262 Descending FlightAware ADS-B
Thu 07:18:57 PM 29.5179 -93.9084 273° West 422 486 20,400 -2,262 Descending FlightAware ADS-B
Thu 07:19:28 PM 29.5205 -93.9753 273° West 415 478 19,200 -2,361 Descending FlightAware ADS-B
Thu 07:19:58 PM 29.5231 -94.0419 272° West 405 466 18,000 -2,323 Descending FlightAware ADS-B
Thu 07:20:30 PM 29.5254 -94.1094 272° West 397 457 16,800 -2,226 Descending FlightAware ADS-B
Thu 07:21:00 PM 29.5276 -94.1729 272° West 389 448 15,700 -2,164 Descending FlightAware ADS-B
Thu 07:21:31 PM 29.5297 -94.2342 272° West 382 440 14,600 -2,066 Descending FlightAware ADS-B
Thu 07:22:01 PM 29.5318 -94.2943 272° West 374 430 13,600 -2,049 Descending FlightAware ADS-B
Thu 07:22:12 PM 29.5326 -94.3172 275° West 372 428 13,200 -2,000 Descending FlightAware ADS-B
Thu 07:22:16 PM 29.5332 -94.3248 280° West 370 426 13,100 -1,000 Descending FlightAware ADS-B
Thu 07:22:24 PM 29.5356 -94.3398 285° West 363 418 13,000 -429 Descending FlightAware ADS-B
Thu 07:22:30 PM 29.5380 -94.3502 289° West 358 412 13,000  Level FlightAware ADS-B
Thu 07:22:37 PM 29.5420 -94.3634 294° West 350 403 13,000  Level FlightAware ADS-B
Thu 07:22:43 PM 29.5455 -94.3726 296° West 345 397 13,000 -1,241 Level FlightAware ADS-B
Thu 07:23:06 PM 29.5616 -94.4107 296° West 342 394 12,400 -1,585 Descending FlightAware ADS-B
Thu 07:23:36 PM 29.5826 -94.4597 296° West 344 396 11,600 -1,532 Descending FlightAware ADS-B
Thu 07:23:53 PM 29.5938 -94.4859 296° West 341 392 11,200 -1,650 Descending FlightAware ADS-B
Thu 07:24:16 PM 29.6097 -94.5232 297° West 334 384 10,500 -1,500 Descending FlightAware ADS-B
Thu 07:24:29 PM 29.6187 -94.5438 297° West 327 376 10,300 -1,286 Descending FlightAware ADS-B
Thu 07:24:44 PM 29.6292 -94.5680 296° West 316 364 9,900 -1,600 Descending FlightAware ADS-B
Thu 07:24:59 PM 29.6388 -94.5902 296° West 309 356 9,500 -1,600 Descending FlightAware ADS-B
Thu 07:25:14 PM 29.6481 -94.6121 296° West 304 350 9,100 -1,355 Descending FlightAware ADS-B
Thu 07:25:30 PM 29.6573 -94.6339 297° West 293 337 8,800 -1,500 Descending FlightAware ADS-B
Thu 07:25:34 PM 29.6602 -94.6405 300° West 292 336 8,600 -2,571 Descending FlightAware ADS-B
Thu 07:25:37 PM 29.6622 -94.6445 304° West 293 337 8,500 -1,500 Descending FlightAware ADS-B
Thu 07:25:42 PM 29.6655 -94.6502 308° West 293 337 8,400 -2,000 Descending FlightAware ADS-B
Thu 07:25:46 PM 29.6693 -94.6558 313° West 294 338 8,200 -3,000 Descending FlightAware ADS-B
Thu 07:25:50 PM 29.6729 -94.6602 319° Northwest 296 341 8,000 -2,400 Descending FlightAware ADS-B
Thu 07:25:56 PM 29.6792 -94.6666 324° Northwest 297 342 7,800 -1,800 Descending FlightAware ADS-B
Thu 07:26:00 PM 29.6833 -94.6700 324° Northwest 298 343 7,700 -1,125 Descending FlightAware ADS-B
Thu 07:26:12 PM 29.6967 -94.6812 324° Northwest 294 338 7,500 -1,071 Descending FlightAware ADS-B
Thu 07:26:28 PM 29.7133 -94.6953 324° Northwest 291 335 7,200 -1,355 Descending FlightAware ADS-B
Thu 07:26:43 PM 29.7300 -94.7094 324° Northwest 289 333 6,800 -1,500 Descending FlightAware ADS-B
Thu 07:26:56 PM 29.7443 -94.7213 324° Northwest 286 329 6,500 -1,241 Descending FlightAware ADS-B
Thu 07:27:12 PM 29.7608 -94.7350 324° Northwest 286 329 6,200 -1,161 Descending FlightAware ADS-B
Thu 07:27:27 PM 29.7770 -94.7484 324° Northwest 287 330 5,900 -1,200 Descending FlightAware ADS-B
Thu 07:27:42 PM 29.7934 -94.7619 324° Northwest 287 330 5,600 -1,161 Descending FlightAware ADS-B
Thu 07:27:58 PM 29.8104 -94.7759 324° Northwest 287 330 5,300 -1,161 Descending FlightAware ADS-B
Thu 07:28:13 PM 29.8273 -94.7898 324° Northwest 287 330 5,000 -1,000 Descending FlightAware ADS-B
Thu 07:28:28 PM 29.8434 -94.8033 324° Northwest 285 328 4,800 -1,000 Descending FlightAware ADS-B
Thu 07:28:43 PM 29.8594 -94.8168 324° Northwest 284 327 4,500 -1,200 Descending FlightAware ADS-B
Thu 07:28:58 PM 29.8754 -94.8302 324° Northwest 283 326 4,200 -968 Descending FlightAware ADS-B
Thu 07:29:14 PM 29.8915 -94.8437 324° Northwest 280 322 4,000 -774 Descending FlightAware ADS-B
Thu 07:29:29 PM 29.9072 -94.8570 324° Northwest 278 320 3,800 -1,050 Descending FlightAware ADS-B
Thu 07:29:54 PM 29.9334 -94.8788 323° Northwest 276 318 3,300 -1,105 Descending FlightAware ADS-B
Thu 07:30:07 PM 29.9463 -94.8900 314° West 271 312 3,100 -947 Descending FlightAware ADS-B
Thu 07:30:13 PM 29.9520 -94.8969 306° West 264 304 3,000 -1,200 Descending FlightAware ADS-B
Thu 07:30:17 PM 29.9548 -94.9013 302° West 261 300 2,900 -750 Descending FlightAware ADS-B
Thu 07:30:21 PM 29.9572 -94.9057 298° West 260 299 2,900 -667 Level FlightAware ADS-B
Thu 07:30:26 PM 29.9597 -94.9112 293° West 258 297 2,800 -1,500 Descending FlightAware ADS-B
Thu 07:30:29 PM 29.9612 -94.9152 291° West 257 296 2,700 -1,000 Descending FlightAware ADS-B
Thu 07:30:32 PM 29.9627 -94.9197 288° West 255 293 2,700 -857 Level FlightAware ADS-B
Thu 07:30:36 PM 29.9641 -94.9248 284° West 253 291 2,600 -1,500 Descending FlightAware ADS-B
Thu 07:30:40 PM 29.9652 -94.9298 283° West 252 290 2,500 -1,043 Descending FlightAware ADS-B
Thu 07:30:59 PM 29.9701 -94.9552 282° West 251 289 2,200 -909 Descending FlightAware ADS-B
Thu 07:31:13 PM 29.9733 -94.9720 282° West 247 284 2,000 -462 Descending FlightAware ADS-B
Thu 07:31:25 PM 29.9761 -94.9872 278° West 236 272 2,000  Level FlightAware ADS-B
Thu 07:31:31 PM 29.9771 -94.9954 275° West 230 265 2,000  Level FlightAware ADS-B
Thu 07:31:35 PM 29.9774 -94.9997 274° West 226 260 2,000  Level FlightAware ADS-B
Thu 07:31:39 PM 29.9777 -95.0050 271° West 222 255 2,000  Level FlightAware ADS-B
Thu 07:31:53 PM 29.9780 -95.0201 269° West 212 244 2,000  Level FlightAware ADS-B
Thu 07:32:00 PM 29.9779 -95.0286 268° West 209 241 2,000  Level FlightAware ADS-B
Thu 07:32:16 PM 29.9775 -95.0460 269° West 215 247 2,000  Level FlightAware ADS-B
Thu 07:32:27 PM 29.9773 -95.0595 269° West 219 252 2,000  Level FlightAware ADS-B
Thu 07:32:37 PM 29.9772 -95.0714 271° West 221 254 2,000  Level FlightAware ADS-B
Thu 07:32:52 PM 29.9774 -95.0891 271° West 222 255 2,000  Level FlightAware ADS-B
Thu 07:33:03 PM 29.9775 -95.1021 270° West 222 255 2,000 231 Level FlightAware ADS-B
Thu 07:33:18 PM 29.9776 -95.1191 270° West 218 251 2,100  Climbing FlightAware ADS-B
Thu 07:33:31 PM 29.9777 -95.1349 269° West 214 246 2,000 -207 Descending FlightAware ADS-B
Thu 07:33:47 PM 29.9775 -95.1519 270° West 209 241 2,000  Level FlightAware ADS-B
Thu 07:33:56 PM 29.9775 -95.1627 271° West 207 238 2,000  Level FlightAware ADS-B
Thu 07:34:07 PM 29.9776 -95.1740 270° West 203 234 2,000  Level FlightAware ADS-B
Thu 07:34:13 PM 29.9776 -95.1808 270° West 199 229 2,000 -600 Level FlightAware ADS-B
Thu 07:34:37 PM 29.9776 -95.2052 270° West 190 219 1,700 -909 Descending FlightAware ADS-B
Thu 07:34:46 PM 29.9776 -95.2143 270° West 180 207 1,500 -889 Descending FlightAware ADS-B
Thu 07:35:04 PM 29.9775 -95.2303 270° West 166 191 1,300 -727 Descending FlightAware ADS-B
Thu 07:35:19 PM 29.9775 -95.2432 270° West 159 183 1,100 -783 Descending FlightAware ADS-B
Thu 07:35:27 PM 29.9775 -95.2498 270° West 160 184 1,000 -800 Descending FlightAware ADS-B
Thu 07:35:34 PM 29.9775 -95.2559 271° West 161 185 900 -857 Descending FlightAware ADS-B
Thu 07:35:41 PM 29.9776 -95.2620 270° West 160 184 800 -900 Descending FlightAware ADS-B
Thu 07:35:54 PM 29.9776 -95.2728 270° West 157 181 600 -774 Descending FlightAware ADS-B
Thu 07:36:12 PM 29.9776 -95.2879 270° West 155 178 400 -706 Descending FlightAware ADS-B
Thu 07:36:28 PM 29.9776 -95.3005 270° West 155 178 200 -750 Descending FlightAware ADS-B

Login

Don't have an account? Register now (free) for customized features, flight alerts, and more!